Time;durP1;ratioP1;P1;durP2;ratioP2;P2;SDS_P1;SDS_P2;PMS_P1;PMS_P2;Temp;Humidity;BMP_temperature;BMP_pressure;BME280_temperature;BME280_humidity;BME280_pressure;Samples;Min_cycle;Max_cycle;Signal;HPM_P1;HPM_P2
2023/10/17 02:07:12;;;;;;;1.80;1.00;;;;;;;;;;5062148;27;20384;-58
2023/10/17 02:09:48;;;;;;;3.25;1.30;;;;;;;;;;5058231;28;20045;-59
2023/10/17 02:12:16;;;;;;;3.15;1.23;;;;;;;;;;5057493;28;20053;-59
2023/10/17 02:14:43;;;;;;;3.00;1.15;;;;;;;;;;5053491;28;20143;-60
2023/10/17 02:17:15;;;;;;;5.32;1.40;;;;;;;;;;5049576;28;20121;-59
2023/10/17 02:19:41;;;;;;;4.97;1.40;;;;;;;;;;5055025;28;20048;-59
2023/10/17 02:22:09;;;;;;;2.85;1.15;;;;;;;;;;5056118;28;20048;-59
2023/10/17 02:24:39;;;;;;;6.50;1.47;;;;;;;;;;5058115;28;20040;-59
2023/10/17 02:27:14;;;;;;;2.97;1.27;;;;;;;;;;5048190;28;20290;-59
2023/10/17 02:29:44;;;;;;;2.40;1.20;;;;;;;;;;5056539;28;20053;-59
2023/10/17 02:32:12;;;;;;;2.08;1.10;;;;;;;;;;5058820;28;20060;-59
2023/10/17 02:34:40;;;;;;;6.28;1.10;;;;;;;;;;5055241;28;20103;-59
2023/10/17 02:37:10;;;;;;;4.88;1.38;;;;;;;;;;5039313;28;20052;-59
2023/10/17 02:39:39;;;;;;;3.13;1.23;;;;;;;;;;5059627;28;20048;-59
2023/10/17 02:42:09;;;;;;;5.38;1.45;;;;;;;;;;5084185;28;20104;-59
2023/10/17 02:44:40;;;;;;;3.55;1.60;;;;;;;;;;5093373;28;20087;-57
2023/10/17 02:47:10;;;;;;;4.60;1.77;;;;;;;;;;5063129;28;20115;-59
2023/10/17 02:49:38;;;;;;;3.58;1.45;;;;;;;;;;5077863;28;20052;-59
2023/10/17 02:52:05;;;;;;;4.60;1.50;;;;;;;;;;5078796;28;20048;-57
2023/10/17 02:54:34;;;;;;;4.25;1.42;;;;;;;;;;5075520;28;20062;-60
2023/10/17 02:57:07;;;;;;;5.78;1.27;;;;;;;;;;5063667;28;20044;-59
2023/10/17 02:59:35;;;;;;;3.88;1.38;;;;;;;;;;5076552;28;20049;-59
2023/10/17 03:02:05;;;;;;;9.77;1.45;;;;;;;;;;5080202;28;20130;-59
2023/10/17 03:04:32;;;;;;;3.67;1.50;;;;;;;;;;5071824;28;20061;-58
2023/10/17 03:06:59;;;;;;;4.10;1.60;;;;;;;;;;5044846;28;20073;-59
2023/10/17 03:09:38;;;;;;;5.72;1.60;;;;;;;;;;5056099;28;20087;-60
2023/10/17 03:12:09;;;;;;;5.75;1.25;;;;;;;;;;5059772;28;20128;-59
2023/10/17 03:15:18;;;;;;;4.65;1.38;;;;;;;;;;5054890;28;20052;-60
2023/10/17 03:17:36;;;;;;;3.20;1.30;;;;;;;;;;5046937;28;20116;-59
2023/10/17 03:20:09;;;;;;;4.10;1.42;;;;;;;;;;5043863;28;20136;-59
2023/10/17 03:22:38;;;;;;;8.18;1.35;;;;;;;;;;5026486;28;20056;-60
2023/10/17 03:25:18;;;;;;;8.82;1.70;;;;;;;;;;5027892;28;20399;-60
2023/10/17 03:27:48;;;;;;;4.53;1.40;;;;;;;;;;5024141;28;20053;-59
2023/10/17 03:30:19;;;;;;;2.15;1.13;;;;;;;;;;5022987;28;20061;-59
2023/10/17 03:33:02;;;;;;;8.90;1.90;;;;;;;;;;5001064;28;20057;-61
2023/10/17 03:35:32;;;;;;;6.28;1.35;;;;;;;;;;5003674;28;20056;-59
2023/10/17 03:38:00;;;;;;;4.20;1.40;;;;;;;;;;5047948;28;20059;-60
2023/10/17 03:40:30;;;;;;;2.97;1.50;;;;;;;;;;5050572;28;20052;-59
2023/10/17 03:43:01;;;;;;;4.15;1.35;;;;;;;;;;5045441;28;20056;-59
2023/10/17 03:45:43;;;;;;;5.05;1.45;;;;;;;;;;5039059;28;20055;-59
2023/10/17 03:48:13;;;;;;;3.03;1.38;;;;;;;;;;5043538;28;20059;-59
2023/10/17 03:50:48;;;;;;;2.83;1.25;;;;;;;;;;5039772;28;20084;-59
2023/10/17 03:53:24;;;;;;;4.63;1.40;;;;;;;;;;5045431;28;20052;-60
2023/10/17 03:55:51;;;;;;;2.95;1.40;;;;;;;;;;5037436;28;20056;-59
2023/10/17 03:58:29;;;;;;;4.45;1.83;;;;;;;;;;5041829;28;20077;-59
2023/10/17 04:00:58;;;;;;;5.40;1.50;;;;;;;;;;5032100;28;20156;-59
2023/10/17 04:03:26;;;;;;;6.05;1.75;;;;;;;;;;5040348;28;20056;-58
2023/10/17 04:06:01;;;;;;;4.40;1.90;;;;;;;;;;5036859;28;20049;-60
2023/10/17 04:08:31;;;;;;;5.10;1.58;;;;;;;;;;5044801;28;20049;-58
2023/10/17 04:11:11;;;;;;;3.47;1.50;;;;;;;;;;5034679;28;20139;-59
2023/10/17 04:13:39;;;;;;;4.05;1.58;;;;;;;;;;5042133;28;20061;-59
2023/10/17 04:16:10;;;;;;;3.65;1.48;;;;;;;;;;5037010;28;20053;-59
2023/10/17 04:18:37;;;;;;;4.28;1.70;;;;;;;;;;5040987;28;20165;-60
2023/10/17 04:21:17;;;;;;;3.70;1.50;;;;;;;;;;5035719;28;20065;-59
2023/10/17 04:23:44;;;;;;;2.75;1.42;;;;;;;;;;5041681;28;20292;-59
2023/10/17 04:26:17;;;;;;;5.63;1.88;;;;;;;;;;5029305;28;20053;-59
2023/10/17 04:28:49;;;;;;;4.88;1.45;;;;;;;;;;5036663;28;20238;-60
2023/10/17 04:31:25;;;;;;;5.82;1.80;;;;;;;;;;5040867;28;20169;-59
2023/10/17 04:33:56;;;;;;;4.60;1.50;;;;;;;;;;5042678;28;20051;-59
2023/10/17 04:36:26;;;;;;;6.30;1.50;;;;;;;;;;5038514;28;20111;-59
2023/10/17 04:41:41;;;;;;;3.63;1.48;;;;;;;;;;5057430;28;20048;-59
2023/10/17 04:44:15;;;;;;;5.53;1.48;;;;;;;;;;5057725;28;20045;-59
2023/10/17 04:46:50;;;;;;;5.45;2.03;;;;;;;;;;5034361;28;20108;-60
2023/10/17 04:49:18;;;;;;;5.65;2.55;;;;;;;;;;5038566;28;20140;-59
2023/10/17 04:51:45;;;;;;;3.28;1.70;;;;;;;;;;5038651;28;20063;-59
2023/10/17 04:54:22;;;;;;;6.13;1.63;;;;;;;;;;5040220;28;20128;-57
2023/10/17 04:56:59;;;;;;;5.50;1.92;;;;;;;;;;5034664;28;20084;-59
2023/10/17 05:07:53;;;;;;;5.85;1.58;;;;;;;;;;5039015;28;20044;-58
2023/10/17 06:19:09;;;;;;;10.90;3.33;;;;;;;;;;5010748;28;20159;-59
2023/10/17 06:21:54;;;;;;;9.20;3.40;;;;;;;;;;5024833;28;20063;-60
2023/10/17 06:24:45;;;;;;;10.57;4.00;;;;;;;;;;5039839;28;20064;-60
2023/10/17 06:30:27;;;;;;;7.82;3.42;;;;;;;;;;5041336;28;20053;-59
2023/10/17 06:35:44;;;;;;;12.02;4.13;;;;;;;;;;5008061;28;20063;-60
2023/10/17 06:38:16;;;;;;;12.93;4.57;;;;;;;;;;5035061;28;20054;-59
2023/10/17 06:40:52;;;;;;;11.50;4.43;;;;;;;;;;5041560;28;20048;-60
2023/10/17 06:43:27;;;;;;;10.55;3.70;;;;;;;;;;5051728;28;20079;-60
2023/10/17 06:46:00;;;;;;;14.75;6.47;;;;;;;;;;5001174;28;20053;-60
2023/10/17 06:48:36;;;;;;;11.52;5.55;;;;;;;;;;5030385;28;20053;-60
2023/10/17 06:53:55;;;;;;;12.93;4.72;;;;;;;;;;5061371;28;20045;-61
2023/10/17 06:56:25;;;;;;;9.73;4.30;;;;;;;;;;5033000;28;20064;-59
2023/10/17 06:59:03;;;;;;;9.75;3.90;;;;;;;;;;5038113;28;20045;-60
2023/10/17 07:01:33;;;;;;;11.52;3.78;;;;;;;;;;5046690;28;20052;-59
2023/10/17 07:04:01;;;;;;;10.18;4.25;;;;;;;;;;5042334;28;20124;-59
2023/10/17 07:06:32;;;;;;;8.70;3.50;;;;;;;;;;5024495;28;20080;-60
2023/10/17 07:09:05;;;;;;;11.10;3.58;;;;;;;;;;5041768;28;20060;-59
2023/10/17 07:11:36;;;;;;;10.57;3.83;;;;;;;;;;5042970;28;20057;-60
2023/10/17 07:14:23;;;;;;;11.63;4.25;;;;;;;;;;5044473;28;20146;-59
2023/10/17 07:16:57;;;;;;;10.47;3.57;;;;;;;;;;5026278;28;20059;-59
2023/10/17 07:19:47;;;;;;;10.48;3.92;;;;;;;;;;5039934;28;20394;-59
2023/10/17 07:22:15;;;;;;;8.77;3.90;;;;;;;;;;5023087;28;20080;-59
2023/10/17 07:24:44;;;;;;;9.70;3.85;;;;;;;;;;5019451;28;20050;-60
2023/10/17 07:27:19;;;;;;;13.23;4.25;;;;;;;;;;5015729;28;20131;-60
2023/10/17 07:29:58;;;;;;;9.63;4.25;;;;;;;;;;5027209;28;20064;-61
2023/10/17 07:32:32;;;;;;;11.10;3.72;;;;;;;;;;5042737;28;20132;-60
2023/10/17 07:35:01;;;;;;;10.05;4.07;;;;;;;;;;5021802;28;20144;-60
2023/10/17 07:37:34;;;;;;;14.07;3.88;;;;;;;;;;5019381;28;20091;-60
2023/10/17 07:40:22;;;;;;;10.45;3.85;;;;;;;;;;5032245;28;20068;-60
2023/10/17 07:42:52;;;;;;;8.25;3.60;;;;;;;;;;5051625;28;20071;-62
2023/10/17 07:45:21;;;;;;;7.75;3.58;;;;;;;;;;5041609;28;20053;-61
2023/10/17 07:47:56;;;;;;;11.88;4.18;;;;;;;;;;5041506;28;20053;-60
2023/10/17 07:50:28;;;;;;;17.98;3.40;;;;;;;;;;5026563;28;20048;-60
2023/10/17 07:53:05;;;;;;;9.40;3.58;;;;;;;;;;5022990;28;20075;-61
2023/10/17 07:55:46;;;;;;;9.80;4.20;;;;;;;;;;4987931;28;20115;-60
2023/10/17 07:58:17;;;;;;;10.77;3.55;;;;;;;;;;4992955;28;20077;-60
2023/10/17 08:00:48;;;;;;;8.25;3.17;;;;;;;;;;5023322;28;20056;-61
2023/10/17 08:03:15;;;;;;;8.07;3.30;;;;;;;;;;5025967;28;20081;-61
2023/10/17 08:05:59;;;;;;;8.93;3.38;;;;;;;;;;4980740;28;20045;-60
2023/10/17 08:08:33;;;;;;;9.02;3.60;;;;;;;;;;5041311;28;20084;-60
2023/10/17 08:11:05;;;;;;;8.15;3.08;;;;;;;;;;5036993;28;20138;-60
2023/10/17 08:13:32;;;;;;;7.80;3.15;;;;;;;;;;5043130;28;20049;-60
2023/10/17 08:16:10;;;;;;;10.52;4.03;;;;;;;;;;5031625;28;20052;-61
2023/10/17 08:18:43;;;;;;;9.73;3.83;;;;;;;;;;5041339;28;20052;-61
2023/10/17 08:23:54;;;;;;;9.90;3.78;;;;;;;;;;5041772;28;20063;-61
2023/10/17 08:26:28;;;;;;;11.75;4.35;;;;;;;;;;5000695;28;20102;-60
2023/10/17 08:28:56;;;;;;;10.93;3.88;;;;;;;;;;5039091;28;20049;-60
2023/10/17 08:31:28;;;;;;;10.63;3.97;;;;;;;;;;5044379;28;20136;-60
2023/10/17 08:34:04;;;;;;;8.57;3.13;;;;;;;;;;5043804;28;20049;-60
2023/10/17 08:36:42;;;;;;;7.45;3.75;;;;;;;;;;5029962;28;20075;-60
2023/10/17 08:39:26;;;;;;;8.73;3.72;;;;;;;;;;5020615;28;20053;-60
2023/10/17 08:41:57;;;;;;;9.75;3.80;;;;;;;;;;5065045;28;20056;-61
2023/10/17 08:44:28;;;;;;;14.85;4.47;;;;;;;;;;5062135;28;20040;-63
2023/10/17 08:46:55;;;;;;;9.07;4.00;;;;;;;;;;5038726;28;20056;-59
2023/10/17 08:49:23;;;;;;;12.00;4.63;;;;;;;;;;5036038;28;20049;-59
2023/10/17 08:51:49;;;;;;;9.18;3.88;;;;;;;;;;5041861;28;20060;-59
2023/10/17 08:54:18;;;;;;;12.40;4.53;;;;;;;;;;5041497;28;20118;-59
2023/10/17 08:56:47;;;;;;;11.27;4.93;;;;;;;;;;5033311;28;20068;-59
2023/10/17 08:59:45;;;;;;;11.98;5.25;;;;;;;;;;5041963;28;21047;-59
2023/10/17 09:02:20;;;;;;;10.35;4.53;;;;;;;;;;5040695;28;20045;-60
2023/10/17 09:04:50;;;;;;;9.30;4.40;;;;;;;;;;5038596;28;20171;-60
2023/10/17 09:07:31;;;;;;;12.60;5.57;;;;;;;;;;4991869;28;20165;-60
2023/10/17 09:10:04;;;;;;;13.50;4.63;;;;;;;;;;5003066;28;20045;-60
2023/10/17 09:12:36;;;;;;;17.55;5.35;;;;;;;;;;5007920;28;20073;-60
2023/10/17 09:15:06;;;;;;;14.48;5.38;;;;;;;;;;5016755;28;20053;-59
2023/10/17 09:17:38;;;;;;;13.32;5.25;;;;;;;;;;4985632;28;20073;-60
2023/10/17 09:20:11;;;;;;;15.52;5.85;;;;;;;;;;5005753;28;20052;-60
2023/10/17 09:22:40;;;;;;;11.57;4.30;;;;;;;;;;5002601;28;20060;-60
2023/10/17 09:25:25;;;;;;;;;;;;;;;;;;4999030;28;20045;-59
2023/10/17 09:27:53;;;;;;;11.27;4.93;;;;;;;;;;4992275;28;19931;-60
2023/10/17 09:30:23;;;;;;;10.85;4.93;;;;;;;;;;5022833;28;20161;-59
2023/10/17 09:32:53;;;;;;;12.15;4.88;;;;;;;;;;5020926;28;20053;-60
2023/10/17 09:35:21;;;;;;;13.57;5.53;;;;;;;;;;5022423;28;20127;-59
2023/10/17 09:37:50;;;;;;;14.88;5.32;;;;;;;;;;4995891;28;20053;-60
2023/10/17 09:40:25;;;;;;;12.63;5.07;;;;;;;;;;5009393;28;20106;-60
2023/10/17 09:42:53;;;;;;;13.93;4.55;;;;;;;;;;5012417;28;20049;-59
2023/10/17 09:45:21;;;;;;;7.18;3.53;;;;;;;;;;5020510;28;20064;-60
2023/10/17 09:47:53;;;;;;;15.20;5.57;;;;;;;;;;4968185;28;20081;-60
2023/10/17 09:50:21;;;;;;;7.07;3.63;;;;;;;;;;5002942;28;20041;-60
2023/10/17 09:52:50;;;;;;;12.10;4.20;;;;;;;;;;5015027;28;20080;-60
2023/10/17 09:55:23;;;;;;;13.65;4.97;;;;;;;;;;5003724;28;20361;-60
2023/10/17 09:57:54;;;;;;;10.85;4.13;;;;;;;;;;5014645;28;20115;-60
2023/10/17 10:00:32;;;;;;;10.07;4.40;;;;;;;;;;5021578;28;20049;-60
2023/10/17 10:03:00;;;;;;;5.80;2.78;;;;;;;;;;4996967;28;20064;-60
2023/10/17 10:05:28;;;;;;;11.68;4.28;;;;;;;;;;5013149;28;20051;-60
2023/10/17 10:07:55;;;;;;;;;;;;;;;;;;5028991;28;20102;-60
2023/10/17 10:10:51;;;;;;;11.27;3.63;;;;;;;;;;5039170;28;19932;-60
2023/10/17 10:13:19;;;;;;;10.30;3.17;;;;;;;;;;5023516;28;20054;-62
2023/10/17 10:16:01;;;;;;;6.32;2.42;;;;;;;;;;5009243;28;20073;-60
2023/10/17 10:18:54;;;;;;;7.50;2.35;;;;;;;;;;5018374;28;20041;-61
2023/10/17 10:21:22;;;;;;;7.35;3.50;;;;;;;;;;5021058;28;20056;-60
2023/10/17 10:23:55;;;;;;;11.95;4.38;;;;;;;;;;5043096;28;20053;-61
2023/10/17 10:26:22;;;;;;;9.23;3.28;;;;;;;;;;4991786;28;20048;-60
2023/10/17 10:28:49;;;;;;;7.05;2.88;;;;;;;;;;5024709;28;20138;-62
2023/10/17 10:31:39;;;;;;;6.93;3.20;;;;;;;;;;5044499;28;20060;-61
2023/10/17 10:34:07;;;;;;;7.35;2.70;;;;;;;;;;5044062;28;20136;-61
2023/10/17 10:36:39;;;;;;;9.85;3.15;;;;;;;;;;5020869;28;20136;-61
2023/10/17 10:39:18;;;;;;;9.30;3.38;;;;;;;;;;5037967;28;20044;-61
2023/10/17 10:41:58;;;;;;;8.57;2.80;;;;;;;;;;5059431;28;20196;-61
2023/10/17 10:44:28;;;;;;;7.85;2.55;;;;;;;;;;5023069;28;20045;-60
2023/10/17 10:46:56;;;;;;;7.57;3.22;;;;;;;;;;5025114;28;20056;-60
2023/10/17 10:49:27;;;;;;;8.50;2.72;;;;;;;;;;5064692;28;20123;-61
2023/10/17 10:51:57;;;;;;;10.68;3.60;;;;;;;;;;5066111;28;20064;-61
2023/10/17 10:54:25;;;;;;;9.23;3.20;;;;;;;;;;5064393;28;20045;-61
2023/10/17 10:56:52;;;;;;;7.85;3.13;;;;;;;;;;4998294;28;20055;-61
2023/10/17 10:59:21;;;;;;;10.70;3.67;;;;;;;;;;5058965;28;20048;-62
2023/10/17 11:01:48;;;;;;;6.97;2.83;;;;;;;;;;5065764;28;20068;-60
2023/10/17 11:04:17;;;;;;;11.48;2.60;;;;;;;;;;5065510;28;20056;-62
2023/10/17 11:06:45;;;;;;;;;;;;;;;;;;5028253;28;20094;-59
2023/10/17 11:09:16;;;;;;;6.97;2.95;;;;;;;;;;5064139;28;20003;-59
2023/10/17 11:11:46;;;;;;;7.35;2.78;;;;;;;;;;5059840;28;20083;-60
2023/10/17 11:14:15;;;;;;;10.02;3.90;;;;;;;;;;5023853;28;20120;-59
2023/10/17 11:16:50;;;;;;;7.55;3.17;;;;;;;;;;5037467;28;20057;-60
2023/10/17 11:19:22;;;;;;;8.20;3.65;;;;;;;;;;5041401;28;20071;-60
2023/10/17 11:21:57;;;;;;;7.28;2.63;;;;;;;;;;5044634;28;20128;-59
2023/10/17 11:24:26;;;;;;;7.30;2.83;;;;;;;;;;5045955;28;20057;-59
2023/10/17 11:26:55;;;;;;;9.68;2.88;;;;;;;;;;5009732;28;20099;-60
2023/10/17 11:29:26;;;;;;;7.53;2.80;;;;;;;;;;5043913;28;20056;-61
2023/10/17 11:31:54;;;;;;;6.03;2.45;;;;;;;;;;5045186;28;20053;-60
2023/10/17 11:34:33;;;;;;;8.10;2.45;;;;;;;;;;5042014;28;20041;-60
2023/10/17 11:37:11;;;;;;;7.03;2.45;;;;;;;;;;5032592;28;20057;-60
2023/10/17 11:39:41;;;;;;;5.80;2.50;;;;;;;;;;5044416;28;20180;-60
2023/10/17 11:42:08;;;;;;;5.53;2.50;;;;;;;;;;5063055;28;20059;-60
2023/10/17 11:44:46;;;;;;;7.90;2.70;;;;;;;;;;5045369;28;20057;-60
2023/10/17 11:47:22;;;;;;;7.43;2.63;;;;;;;;;;4988867;28;20215;-61
2023/10/17 11:49:52;;;;;;;7.32;1.98;;;;;;;;;;5045213;28;20057;-61
2023/10/17 11:52:19;;;;;;;5.57;1.88;;;;;;;;;;5044525;28;20064;-60
2023/10/17 11:54:56;;;;;;;5.20;2.10;;;;;;;;;;5039751;28;20076;-62
2023/10/17 11:57:25;;;;;;;6.13;2.40;;;;;;;;;;5024399;28;20052;-60
2023/10/17 11:59:56;;;;;;;6.07;2.33;;;;;;;;;;5048168;28;20198;-59
2023/10/17 12:02:23;;;;;;;5.15;2.13;;;;;;;;;;5046518;28;20147;-59
2023/10/17 12:04:51;;;;;;;4.22;2.05;;;;;;;;;;5036652;28;20053;-63
2023/10/17 12:07:19;;;;;;;10.48;2.38;;;;;;;;;;4961260;28;20145;-62
2023/10/17 12:09:46;;;;;;;7.07;2.60;;;;;;;;;;5025583;28;20088;-59
2023/10/17 12:12:18;;;;;;;4.00;2.17;;;;;;;;;;5030879;28;20049;-60
2023/10/17 12:14:48;;;;;;;6.70;2.22;;;;;;;;;;5040027;28;20055;-59
2023/10/17 12:17:19;;;;;;;6.97;2.45;;;;;;;;;;4997215;28;20121;-62
2023/10/17 12:19:46;;;;;;;6.28;2.63;;;;;;;;;;5031438;28;20041;-59
2023/10/17 12:22:14;;;;;;;7.70;2.40;;;;;;;;;;5043212;28;20080;-60
2023/10/17 12:24:42;;;;;;;6.97;2.65;;;;;;;;;;5042421;28;20118;-62
2023/10/17 12:27:12;;;;;;;7.53;2.83;;;;;;;;;;5011350;28;20068;-61
2023/10/17 12:29:39;;;;;;;6.45;2.20;;;;;;;;;;5033608;28;20087;-62
2023/10/17 12:32:10;;;;;;;5.68;2.10;;;;;;;;;;5025909;28;20050;-60
2023/10/17 12:34:42;;;;;;;6.47;2.63;;;;;;;;;;5022797;28;20051;-61
2023/10/17 12:37:14;;;;;;;6.30;2.45;;;;;;;;;;5009727;28;20089;-60
2023/10/17 12:39:42;;;;;;;8.55;2.50;;;;;;;;;;5025152;28;20049;-60
2023/10/17 12:42:09;;;;;;;5.35;2.40;;;;;;;;;;5029621;28;20167;-61
2023/10/17 12:44:36;;;;;;;4.50;2.00;;;;;;;;;;5021545;28;20049;-60
2023/10/17 12:47:03;;;;;;;6.15;2.20;;;;;;;;;;4997917;28;20081;-60
2023/10/17 12:49:30;;;;;;;7.13;2.00;;;;;;;;;;5021443;28;20132;-60
2023/10/17 12:52:00;;;;;;;6.30;1.98;;;;;;;;;;5024064;28;20085;-60
2023/10/17 12:54:28;;;;;;;4.03;1.98;;;;;;;;;;5022139;28;20041;-60
2023/10/17 12:56:55;;;;;;;4.18;2.15;;;;;;;;;;5006940;28;20136;-60
2023/10/17 12:59:23;;;;;;;5.93;2.05;;;;;;;;;;5020961;28;20053;-60
2023/10/17 13:01:51;;;;;;;;;;;;;;;;;;5023972;28;20064;-60
2023/10/17 13:04:19;;;;;;;4.33;2.20;;;;;;;;;;5019317;28;19967;-61
2023/10/17 13:06:48;;;;;;;7.25;1.85;;;;;;;;;;5021530;28;20295;-62
2023/10/17 13:09:14;;;;;;;3.78;1.80;;;;;;;;;;5042143;28;20049;-60
2023/10/17 13:11:45;;;;;;;4.22;1.70;;;;;;;;;;5041618;28;20158;-62
2023/10/17 13:14:12;;;;;;;4.13;1.65;;;;;;;;;;5042262;28;20041;-60
2023/10/17 13:16:40;;;;;;;7.43;1.88;;;;;;;;;;5036965;28;20077;-61
2023/10/17 13:19:16;;;;;;;3.50;1.75;;;;;;;;;;5036293;28;20080;-60
2023/10/17 13:21:44;;;;;;;3.58;1.70;;;;;;;;;;5042885;28;20048;-60
2023/10/17 13:24:11;;;;;;;3.45;1.52;;;;;;;;;;5039553;28;20176;-61
2023/10/17 13:27:06;;;;;;;3.92;1.65;;;;;;;;;;5018874;28;20056;-62
2023/10/17 13:29:36;;;;;;;4.13;1.73;;;;;;;;;;5026000;28;20051;-61
2023/10/17 13:32:07;;;;;;;3.13;1.50;;;;;;;;;;5034812;28;20057;-61
2023/10/17 13:34:37;;;;;;;3.70;1.42;;;;;;;;;;5040938;28;20056;-61
2023/10/17 13:37:09;;;;;;;4.32;1.67;;;;;;;;;;5026145;28;20060;-61
2023/10/17 13:39:36;;;;;;;4.65;1.58;;;;;;;;;;5041742;28;20126;-60
2023/10/17 13:42:05;;;;;;;3.97;1.43;;;;;;;;;;5055384;28;20057;-61
2023/10/17 13:44:32;;;;;;;4.85;1.50;;;;;;;;;;5041064;28;20052;-62
2023/10/17 13:47:01;;;;;;;3.30;1.25;;;;;;;;;;5036049;28;20056;-61
2023/10/17 13:49:29;;;;;;;2.33;1.38;;;;;;;;;;5040243;28;20084;-61
2023/10/17 13:51:56;;;;;;;;;;;;;;;;;;5043976;28;20122;-61
2023/10/17 13:54:23;;;;;;;3.40;1.58;;;;;;;;;;5042973;28;19928;-61
2023/10/17 13:56:49;;;;;;;3.25;1.60;;;;;;;;;;5036979;28;20068;-61
2023/10/17 13:59:34;;;;;;;3.47;1.60;;;;;;;;;;5040263;28;20049;-62
2023/10/17 14:02:05;;;;;;;5.05;1.85;;;;;;;;;;5044386;28;20057;-61
2023/10/17 14:04:33;;;;;;;3.50;1.30;;;;;;;;;;5041306;28;20211;-62
2023/10/17 14:07:00;;;;;;;3.15;1.15;;;;;;;;;;5011082;28;20080;-61
2023/10/17 14:09:29;;;;;;;5.10;1.60;;;;;;;;;;5041552;28;20167;-61
2023/10/17 14:11:57;;;;;;;3.60;1.35;;;;;;;;;;5042858;28;20049;-62
2023/10/17 14:14:29;;;;;;;5.43;1.48;;;;;;;;;;5039757;28;20134;-61
2023/10/17 14:17:01;;;;;;;3.50;1.30;;;;;;;;;;4929112;28;20152;-62
2023/10/17 14:19:40;;;;;;;5.05;1.45;;;;;;;;;;5026938;28;20053;-61
2023/10/17 14:22:20;;;;;;;;;;;;;;;;;;5043432;28;20053;-62
2023/10/17 14:25:03;;;;;;;3.30;1.30;;;;;;;;;;5034160;28;19995;-59
2023/10/17 14:27:32;;;;;;;2.45;1.17;;;;;;;;;;5021524;28;20144;-58
2023/10/17 14:30:05;;;;;;;6.93;1.60;;;;;;;;;;5029443;28;20119;-56
2023/10/17 14:32:33;;;;;;;2.17;1.02;;;;;;;;;;5032048;28;20132;-58
2023/10/17 14:34:59;;;;;;;3.72;1.48;;;;;;;;;;5035700;28;20463;-56
2023/10/17 14:37:27;;;;;;;4.18;1.38;;;;;;;;;;5051211;28;20053;-57
2023/10/17 14:39:54;;;;;;;3.72;1.50;;;;;;;;;;5056681;28;20136;-58
2023/10/17 14:42:27;;;;;;;3.67;1.55;;;;;;;;;;5054508;28;20161;-59
2023/10/17 14:44:55;;;;;;;6.07;1.60;;;;;;;;;;5015552;28;20061;-61
2023/10/17 14:47:24;;;;;;;4.35;1.58;;;;;;;;;;4996141;28;20080;-59
2023/10/17 14:49:51;;;;;;;5.70;1.80;;;;;;;;;;5026356;28;20267;-59
2023/10/17 14:52:20;;;;;;;3.03;1.42;;;;;;;;;;5035526;28;20064;-59
2023/10/17 14:54:49;;;;;;;;;;;;;;;;;;5036180;28;20053;-60
2023/10/17 14:57:16;;;;;;;3.15;1.52;;;;;;;;;;5036992;28;19924;-57
2023/10/17 14:59:43;;;;;;;3.88;1.15;;;;;;;;;;5041409;28;20136;-59
2023/10/17 15:02:11;;;;;;;2.78;1.38;;;;;;;;;;5043563;28;20052;-56
2023/10/17 15:04:44;;;;;;;2.78;1.35;;;;;;;;;;5038482;28;20048;-60
2023/10/17 15:07:12;;;;;;;5.82;1.20;;;;;;;;;;5034270;28;20160;-60
2023/10/17 15:09:38;;;;;;;3.92;1.25;;;;;;;;;;5039251;28;20057;-59
2023/10/17 15:12:05;;;;;;;8.27;1.50;;;;;;;;;;5042216;28;20072;-60
2023/10/17 15:14:32;;;;;;;3.72;1.33;;;;;;;;;;5044330;28;20048;-60
2023/10/17 15:16:59;;;;;;;4.75;1.73;;;;;;;;;;5025378;28;20095;-59
2023/10/17 15:19:26;;;;;;;3.95;1.42;;;;;;;;;;5044610;28;20052;-57
2023/10/17 15:21:55;;;;;;;5.53;2.17;;;;;;;;;;5044550;28;20116;-60
2023/10/17 15:24:22;;;;;;;6.68;2.22;;;;;;;;;;5044729;28;20075;-58
2023/10/17 15:26:50;;;;;;;8.23;3.40;;;;;;;;;;5004806;28;20130;-59
2023/10/17 15:29:17;;;;;;;6.28;2.90;;;;;;;;;;5029941;28;20052;-59
2023/10/17 15:31:49;;;;;;;8.05;1.65;;;;;;;;;;5044799;28;20063;-57
2023/10/17 15:34:16;;;;;;;8.70;1.50;;;;;;;;;;5045697;28;20048;-60
2023/10/17 15:36:43;;;;;;;4.05;1.30;;;;;;;;;;4997377;28;20099;-59
2023/10/17 15:39:13;;;;;;;6.43;1.40;;;;;;;;;;5042551;28;20420;-60
2023/10/17 15:41:42;;;;;;;3.88;1.58;;;;;;;;;;5063334;28;20102;-59
2023/10/17 15:44:10;;;;;;;6.45;3.22;;;;;;;;;;5041908;28;20053;-59
2023/10/17 15:46:39;;;;;;;10.10;3.95;;;;;;;;;;4987675;28;20066;-60
2023/10/17 15:49:06;;;;;;;5.88;1.70;;;;;;;;;;4975668;28;20057;-59
2023/10/17 15:51:39;;;;;;;3.22;1.20;;;;;;;;;;5039786;28;20065;-58
2023/10/17 15:54:05;;;;;;;4.38;1.73;;;;;;;;;;5043302;28;20076;-55
2023/10/17 15:56:34;;;;;;;4.28;1.05;;;;;;;;;;5042022;28;20060;-57
2023/10/17 15:59:01;;;;;;;2.83;1.40;;;;;;;;;;5054296;28;20102;-58
2023/10/17 16:01:27;;;;;;;3.78;1.33;;;;;;;;;;5046022;28;20442;-57
2023/10/17 16:03:54;;;;;;;3.17;1.25;;;;;;;;;;5041032;28;20041;-60
2023/10/17 16:06:21;;;;;;;3.25;1.40;;;;;;;;;;5042279;28;20161;-61
2023/10/17 16:08:49;;;;;;;3.35;1.20;;;;;;;;;;5009742;28;20104;-60
2023/10/17 16:11:17;;;;;;;3.25;1.40;;;;;;;;;;5023672;28;20087;-60
2023/10/17 16:13:45;;;;;;;2.50;1.35;;;;;;;;;;5026411;28;20141;-57
2023/10/17 16:16:12;;;;;;;4.95;1.40;;;;;;;;;;5043605;28;20056;-56
2023/10/17 16:18:39;;;;;;;2.60;1.30;;;;;;;;;;5020777;28;20368;-60
2023/10/17 16:21:09;;;;;;;4.10;1.13;;;;;;;;;;5018199;28;20061;-59
2023/10/17 16:23:36;;;;;;;3.17;1.60;;;;;;;;;;5027627;28;20045;-56
2023/10/17 16:26:03;;;;;;;3.70;1.48;;;;;;;;;;5028004;28;20044;-60
2023/10/17 16:28:30;;;;;;;2.88;1.45;;;;;;;;;;4999332;28;20106;-59
2023/10/17 16:30:59;;;;;;;3.22;1.40;;;;;;;;;;5009023;28;20084;-60
2023/10/17 16:33:26;;;;;;;4.63;1.40;;;;;;;;;;5042862;28;20056;-55
2023/10/17 16:36:03;;;;;;;6.70;1.50;;;;;;;;;;5045630;28;20060;-57
2023/10/17 16:38:30;;;;;;;3.33;1.30;;;;;;;;;;5010681;28;20126;-56
2023/10/17 16:40:59;;;;;;;4.03;1.25;;;;;;;;;;5033574;28;20155;-58
2023/10/17 16:43:28;;;;;;;2.67;1.25;;;;;;;;;;5036026;28;20127;-58
2023/10/17 16:45:59;;;;;;;1.83;1.10;;;;;;;;;;5023535;28;20055;-57
2023/10/17 16:48:27;;;;;;;2.58;1.13;;;;;;;;;;5008695;28;20084;-59
2023/10/17 16:50:54;;;;;;;2.45;1.10;;;;;;;;;;5034768;28;20092;-59
2023/10/17 16:53:24;;;;;;;1.83;1.02;;;;;;;;;;5025966;28;20057;-58
2023/10/17 16:55:51;;;;;;;2.15;1.02;;;;;;;;;;5026752;28;20053;-56
2023/10/17 16:58:17;;;;;;;3.15;1.20;;;;;;;;;;5024291;28;20049;-56
2023/10/17 17:00:44;;;;;;;3.10;1.30;;;;;;;;;;5036327;28;20104;-58
2023/10/17 17:03:11;;;;;;;4.75;1.30;;;;;;;;;;5017668;28;20049;-56
2023/10/17 17:05:39;;;;;;;2.65;1.20;;;;;;;;;;5039726;28;20053;-58
2023/10/17 17:08:07;;;;;;;5.90;1.35;;;;;;;;;;4987930;28;20049;-58
2023/10/17 17:10:41;;;;;;;5.25;1.50;;;;;;;;;;5015122;28;20185;-56
2023/10/17 17:13:08;;;;;;;4.40;1.58;;;;;;;;;;5024597;28;20065;-58
2023/10/17 17:15:37;;;;;;;1.75;1.10;;;;;;;;;;5021616;28;20212;-57
2023/10/17 17:18:05;;;;;;;3.75;1.35;;;;;;;;;;5013666;28;20053;-56
2023/10/17 17:20:34;;;;;;;3.13;1.10;;;;;;;;;;5021030;28;20056;-56
2023/10/17 17:23:02;;;;;;;3.50;1.17;;;;;;;;;;5014764;28;20061;-56
2023/10/17 17:25:30;;;;;;;2.70;1.05;;;;;;;;;;5042770;28;20044;-57
2023/10/17 17:27:57;;;;;;;3.88;1.40;;;;;;;;;;4978155;28;20049;-59
2023/10/17 17:30:24;;;;;;;3.38;1.05;;;;;;;;;;5017698;28;20060;-59
2023/10/17 17:32:51;;;;;;;3.10;1.30;;;;;;;;;;5015721;28;20049;-60
2023/10/17 17:35:17;;;;;;;2.13;1.00;;;;;;;;;;5022102;28;20053;-59
2023/10/17 17:37:44;;;;;;;6.28;1.52;;;;;;;;;;5034378;28;20053;-59
2023/10/17 17:40:13;;;;;;;8.35;1.75;;;;;;;;;;5037125;28;20280;-58
2023/10/17 17:42:40;;;;;;;9.02;1.40;;;;;;;;;;5020210;28;20077;-60
2023/10/17 17:45:11;;;;;;;4.57;1.30;;;;;;;;;;5022285;28;20056;-59
2023/10/17 17:47:39;;;;;;;10.80;5.57;;;;;;;;;;5010019;28;20143;-59
2023/10/17 17:50:10;;;;;;;16.10;7.15;;;;;;;;;;5022001;28;20116;-58
2023/10/17 17:52:38;;;;;;;18.92;7.88;;;;;;;;;;5038816;28;20064;-59
2023/10/17 17:55:08;;;;;;;10.48;2.90;;;;;;;;;;5014413;28;20096;-60
2023/10/17 17:57:36;;;;;;;4.82;1.52;;;;;;;;;;5008660;28;20057;-59
2023/10/17 18:00:04;;;;;;;6.85;1.50;;;;;;;;;;5019694;28;20084;-58
2023/10/17 18:02:31;;;;;;;3.47;1.52;;;;;;;;;;5023341;28;20144;-56
2023/10/17 18:04:57;;;;;;;4.13;1.73;;;;;;;;;;5014144;28;20107;-57
2023/10/17 18:07:26;;;;;;;7.50;1.67;;;;;;;;;;5025697;28;20052;-58
2023/10/17 18:09:52;;;;;;;3.63;1.52;;;;;;;;;;5021536;28;20058;-58
2023/10/17 18:12:19;;;;;;;7.57;2.40;;;;;;;;;;5003001;28;20045;-57
2023/10/17 18:14:53;;;;;;;4.40;1.58;;;;;;;;;;5014269;28;20054;-59
2023/10/17 18:17:19;;;;;;;5.53;1.90;;;;;;;;;;5012637;28;20056;-59
2023/10/17 18:19:47;;;;;;;6.47;2.20;;;;;;;;;;5039385;28;20052;-53
2023/10/17 18:22:14;;;;;;;4.30;1.87;;;;;;;;;;5039977;28;20118;-56
2023/10/17 18:24:40;;;;;;;4.57;1.85;;;;;;;;;;5035633;28;20304;-55
2023/10/17 18:27:07;;;;;;;16.10;7.30;;;;;;;;;;5028709;28;20053;-60
2023/10/17 18:29:34;;;;;;;11.15;5.53;;;;;;;;;;5038484;28;20056;-58
2023/10/17 18:32:02;;;;;;;10.00;4.15;;;;;;;;;;5037779;28;20148;-60
2023/10/17 18:34:28;;;;;;;7.38;2.40;;;;;;;;;;5024066;28;20122;-59
2023/10/17 18:36:55;;;;;;;7.07;2.42;;;;;;;;;;5013238;28;20073;-56
2023/10/17 18:39:23;;;;;;;6.47;2.15;;;;;;;;;;5023462;28;20056;-56
2023/10/17 18:41:50;;;;;;;5.65;2.35;;;;;;;;;;5021893;28;20042;-58